Terminal Aerodrome Forecast
Issued by NWS

Home | Current Version | Previous Version | Text Only | Print | Product List | Glossary On
Versions: 1 2 3 4 5 6 7 8 9 10 11 12 13 14 15 16 17 18 19 20 21 22 23 24 25 26 27 28 29
000
FTUS43 KDLH 230109 AAA
TAFBRD
TAF AMD
KBRD 230109Z 2301/2324 35011KT 1SM -SN BR OVC006
     FM230200 36010KT 3SM -SN BR OVC006
     FM230400 36009KT P6SM OVC010
     FM230600 36009KT P6SM BKN025
     FM230900 36008KT P6SM SCT025 BKN035
     FM231600 03009KT P6SM SCT100=

USA.gov is the U.S. government's official web portal to all federal, state and local government web resources and services.